sensor_id;sensor_type;location;lat;lon;timestamp;P1;durP1;ratioP1;P2;durP2;ratioP2
77038;SDS011;65970;50.476;4.840;2023-08-12T00:04:21;5.03;;;3.53;;
77038;SDS011;65970;50.476;4.840;2023-08-12T00:09:21;6.10;;;3.00;;
77038;SDS011;65970;50.476;4.840;2023-08-12T00:14:22;5.47;;;3.30;;
77038;SDS011;65970;50.476;4.840;2023-08-12T00:19:23;3.15;;;2.88;;
77038;SDS011;65970;50.476;4.840;2023-08-12T00:24:23;5.30;;;2.63;;
77038;SDS011;65970;50.476;4.840;2023-08-12T00:29:24;3.33;;;2.75;;
77038;SDS011;65970;50.476;4.840;2023-08-12T00:34:24;4.22;;;2.60;;
77038;SDS011;65970;50.476;4.840;2023-08-12T00:39:25;3.95;;;2.65;;
77038;SDS011;65970;50.476;4.840;2023-08-12T00:44:25;6.00;;;3.00;;
77038;SDS011;65970;50.476;4.840;2023-08-12T00:49:26;4.53;;;2.67;;
77038;SDS011;65970;50.476;4.840;2023-08-12T00:54:27;7.20;;;3.60;;
77038;SDS011;65970;50.476;4.840;2023-08-12T00:59:28;6.55;;;3.80;;
77038;SDS011;65970;50.476;4.840;2023-08-12T01:04:29;3.60;;;2.63;;
77038;SDS011;65970;50.476;4.840;2023-08-12T01:09:30;6.03;;;3.13;;
77038;SDS011;65970;50.476;4.840;2023-08-12T01:14:39;6.13;;;3.33;;
77038;SDS011;65970;50.476;4.840;2023-08-12T01:19:51;4.38;;;3.05;;
77038;SDS011;65970;50.476;4.840;2023-08-12T01:24:52;3.10;;;2.58;;
77038;SDS011;65970;50.476;4.840;2023-08-12T01:29:52;4.78;;;3.05;;
77038;SDS011;65970;50.476;4.840;2023-08-12T01:34:57;5.45;;;3.20;;
77038;SDS011;65970;50.476;4.840;2023-08-12T01:40:10;9.68;;;3.97;;
77038;SDS011;65970;50.476;4.840;2023-08-12T01:45:13;4.45;;;2.72;;
77038;SDS011;65970;50.476;4.840;2023-08-12T01:50:15;4.20;;;2.92;;
77038;SDS011;65970;50.476;4.840;2023-08-12T01:55:15;6.97;;;2.88;;
77038;SDS011;65970;50.476;4.840;2023-08-12T02:00:16;3.58;;;2.55;;
77038;SDS011;65970;50.476;4.840;2023-08-12T02:05:16;6.40;;;3.35;;
77038;SDS011;65970;50.476;4.840;2023-08-12T02:10:17;3.70;;;3.25;;
77038;SDS011;65970;50.476;4.840;2023-08-12T02:15:18;6.40;;;3.80;;
77038;SDS011;65970;50.476;4.840;2023-08-12T02:20:18;4.75;;;3.20;;
77038;SDS011;65970;50.476;4.840;2023-08-12T02:25:19;4.68;;;3.00;;
77038;SDS011;65970;50.476;4.840;2023-08-12T02:30:19;3.53;;;2.58;;
77038;SDS011;65970;50.476;4.840;2023-08-12T02:35:20;4.40;;;2.78;;
77038;SDS011;65970;50.476;4.840;2023-08-12T02:40:20;3.47;;;2.75;;
77038;SDS011;65970;50.476;4.840;2023-08-12T02:45:21;5.70;;;3.80;;
77038;SDS011;65970;50.476;4.840;2023-08-12T02:50:22;7.05;;;2.92;;
77038;SDS011;65970;50.476;4.840;2023-08-12T02:55:22;4.72;;;3.63;;
77038;SDS011;65970;50.476;4.840;2023-08-12T03:00:23;9.45;;;4.40;;
77038;SDS011;65970;50.476;4.840;2023-08-12T03:05:23;6.50;;;3.38;;
77038;SDS011;65970;50.476;4.840;2023-08-12T03:10:24;5.45;;;2.92;;
77038;SDS011;65970;50.476;4.840;2023-08-12T03:15:24;5.05;;;3.13;;
77038;SDS011;65970;50.476;4.840;2023-08-12T03:20:25;4.85;;;3.55;;
77038;SDS011;65970;50.476;4.840;2023-08-12T03:25:26;5.10;;;2.70;;
77038;SDS011;65970;50.476;4.840;2023-08-12T03:30:26;3.63;;;2.88;;
77038;SDS011;65970;50.476;4.840;2023-08-12T03:35:27;3.35;;;2.40;;
77038;SDS011;65970;50.476;4.840;2023-08-12T03:40:27;3.33;;;2.60;;
77038;SDS011;65970;50.476;4.840;2023-08-12T03:45:28;3.88;;;2.65;;
77038;SDS011;65970;50.476;4.840;2023-08-12T03:50:29;7.35;;;2.47;;
77038;SDS011;65970;50.476;4.840;2023-08-12T03:55:32;2.95;;;2.45;;
77038;SDS011;65970;50.476;4.840;2023-08-12T04:00:33;3.22;;;2.30;;
77038;SDS011;65970;50.476;4.840;2023-08-12T04:05:34;3.67;;;2.35;;
77038;SDS011;65970;50.476;4.840;2023-08-12T04:10:34;3.63;;;2.28;;
77038;SDS011;65970;50.476;4.840;2023-08-12T04:15:35;3.05;;;2.15;;
77038;SDS011;65970;50.476;4.840;2023-08-12T04:20:36;3.80;;;2.50;;
77038;SDS011;65970;50.476;4.840;2023-08-12T04:25:37;2.97;;;2.30;;
77038;SDS011;65970;50.476;4.840;2023-08-12T04:30:45;3.60;;;2.45;;
77038;SDS011;65970;50.476;4.840;2023-08-12T04:35:47;2.53;;;2.28;;
77038;SDS011;65970;50.476;4.840;2023-08-12T04:40:47;5.07;;;2.63;;
77038;SDS011;65970;50.476;4.840;2023-08-12T04:45:48;4.50;;;2.58;;
77038;SDS011;65970;50.476;4.840;2023-08-12T04:50:49;3.78;;;2.25;;
77038;SDS011;65970;50.476;4.840;2023-08-12T04:55:50;3.40;;;2.25;;
77038;SDS011;65970;50.476;4.840;2023-08-12T05:00:50;5.30;;;2.42;;
77038;SDS011;65970;50.476;4.840;2023-08-12T05:05:51;2.13;;;1.92;;
77038;SDS011;65970;50.476;4.840;2023-08-12T05:10:52;1.95;;;1.23;;
77038;SDS011;65970;50.476;4.840;2023-08-12T05:15:52;0.98;;;0.98;;
77038;SDS011;65970;50.476;4.840;2023-08-12T05:20:53;2.30;;;1.05;;
77038;SDS011;65970;50.476;4.840;2023-08-12T05:25:53;1.35;;;0.93;;
77038;SDS011;65970;50.476;4.840;2023-08-12T05:30:54;1.50;;;0.90;;
77038;SDS011;65970;50.476;4.840;2023-08-12T05:35:54;1.40;;;0.60;;
77038;SDS011;65970;50.476;4.840;2023-08-12T05:40:55;1.13;;;0.57;;
77038;SDS011;65970;50.476;4.840;2023-08-12T05:45:55;0.60;;;0.52;;
77038;SDS011;65970;50.476;4.840;2023-08-12T05:50:56;1.73;;;0.85;;
77038;SDS011;65970;50.476;4.840;2023-08-12T05:55:56;0.55;;;0.38;;
77038;SDS011;65970;50.476;4.840;2023-08-12T06:00:57;0.90;;;0.77;;
77038;SDS011;65970;50.476;4.840;2023-08-12T06:05:58;1.55;;;0.45;;
77038;SDS011;65970;50.476;4.840;2023-08-12T06:10:58;0.50;;;0.30;;
77038;SDS011;65970;50.476;4.840;2023-08-12T06:15:59;0.30;;;0.20;;
77038;SDS011;65970;50.476;4.840;2023-08-12T06:20:59;2.33;;;0.25;;
77038;SDS011;65970;50.476;4.840;2023-08-12T06:26:00;0.17;;;0.10;;
77038;SDS011;65970;50.476;4.840;2023-08-12T06:31:00;2.65;;;0.10;;
77038;SDS011;65970;50.476;4.840;2023-08-12T06:36:01;0.17;;;0.17;;
77038;SDS011;65970;50.476;4.840;2023-08-12T06:41:01;0.00;;;0.00;;
77038;SDS011;65970;50.476;4.840;2023-08-12T06:46:02;0.10;;;0.10;;
77038;SDS011;65970;50.476;4.840;2023-08-12T06:51:02;0.22;;;0.10;;
77038;SDS011;65970;50.476;4.840;2023-08-12T06:56:03;0.17;;;0.10;;
77038;SDS011;65970;50.476;4.840;2023-08-12T07:01:03;0.47;;;0.20;;
77038;SDS011;65970;50.476;4.840;2023-08-12T07:06:04;0.10;;;0.10;;
77038;SDS011;65970;50.476;4.840;2023-08-12T07:11:05;0.13;;;0.10;;
77038;SDS011;65970;50.476;4.840;2023-08-12T07:16:05;1.02;;;0.20;;
77038;SDS011;65970;50.476;4.840;2023-08-12T07:21:06;0.13;;;0.13;;
77038;SDS011;65970;50.476;4.840;2023-08-12T07:26:06;1.67;;;0.10;;
77038;SDS011;65970;50.476;4.840;2023-08-12T07:31:07;1.35;;;0.30;;
77038;SDS011;65970;50.476;4.840;2023-08-12T07:36:07;0.13;;;0.13;;
77038;SDS011;65970;50.476;4.840;2023-08-12T07:41:08;0.17;;;0.10;;
77038;SDS011;65970;50.476;4.840;2023-08-12T07:46:08;0.08;;;0.08;;
77038;SDS011;65970;50.476;4.840;2023-08-12T07:51:09;0.40;;;0.40;;
77038;SDS011;65970;50.476;4.840;2023-08-12T07:56:09;0.10;;;0.10;;
77038;SDS011;65970;50.476;4.840;2023-08-12T08:01:10;0.20;;;0.17;;
77038;SDS011;65970;50.476;4.840;2023-08-12T08:06:11;0.22;;;0.10;;
77038;SDS011;65970;50.476;4.840;2023-08-12T08:11:11;0.30;;;0.10;;
77038;SDS011;65970;50.476;4.840;2023-08-12T08:16:12;0.68;;;0.20;;
77038;SDS011;65970;50.476;4.840;2023-08-12T08:21:12;0.00;;;0.00;;
77038;SDS011;65970;50.476;4.840;2023-08-12T08:26:13;0.13;;;0.10;;
77038;SDS011;65970;50.476;4.840;2023-08-12T08:31:13;0.82;;;0.10;;
77038;SDS011;65970;50.476;4.840;2023-08-12T08:36:14;0.10;;;0.10;;
77038;SDS011;65970;50.476;4.840;2023-08-12T08:41:15;0.10;;;0.10;;
77038;SDS011;65970;50.476;4.840;2023-08-12T08:46:16;0.22;;;0.22;;
77038;SDS011;65970;50.476;4.840;2023-08-12T08:51:17;1.08;;;0.98;;
77038;SDS011;65970;50.476;4.840;2023-08-12T08:56:19;1.50;;;0.87;;
77038;SDS011;65970;50.476;4.840;2023-08-12T09:01:20;0.70;;;0.70;;
77038;SDS011;65970;50.476;4.840;2023-08-12T09:06:23;1.30;;;0.77;;
77038;SDS011;65970;50.476;4.840;2023-08-12T09:11:25;0.60;;;0.30;;
77038;SDS011;65970;50.476;4.840;2023-08-12T09:16:26;0.93;;;0.20;;
77038;SDS011;65970;50.476;4.840;2023-08-12T09:21:26;0.30;;;0.20;;
77038;SDS011;65970;50.476;4.840;2023-08-12T09:26:27;1.02;;;0.57;;
77038;SDS011;65970;50.476;4.840;2023-08-12T09:31:29;0.88;;;0.38;;
77038;SDS011;65970;50.476;4.840;2023-08-12T09:36:30;0.60;;;0.40;;
77038;SDS011;65970;50.476;4.840;2023-08-12T09:41:31;0.32;;;0.20;;
77038;SDS011;65970;50.476;4.840;2023-08-12T09:46:34;0.40;;;0.40;;
77038;SDS011;65970;50.476;4.840;2023-08-12T09:51:35;0.80;;;0.63;;
77038;SDS011;65970;50.476;4.840;2023-08-12T09:56:36;0.52;;;0.47;;
77038;SDS011;65970;50.476;4.840;2023-08-12T10:01:39;1.10;;;0.82;;
77038;SDS011;65970;50.476;4.840;2023-08-12T10:06:41;1.00;;;0.63;;
77038;SDS011;65970;50.476;4.840;2023-08-12T10:11:42;0.70;;;0.50;;
77038;SDS011;65970;50.476;4.840;2023-08-12T10:16:46;0.95;;;0.70;;
77038;SDS011;65970;50.476;4.840;2023-08-12T10:21:48;1.70;;;0.60;;
77038;SDS011;65970;50.476;4.840;2023-08-12T10:26:51;0.60;;;0.60;;
77038;SDS011;65970;50.476;4.840;2023-08-12T10:31:52;1.83;;;0.60;;
77038;SDS011;65970;50.476;4.840;2023-08-12T10:36:56;0.40;;;0.40;;
77038;SDS011;65970;50.476;4.840;2023-08-12T10:42:00;1.15;;;0.50;;
77038;SDS011;65970;50.476;4.840;2023-08-12T10:47:05;2.33;;;0.30;;
77038;SDS011;65970;50.476;4.840;2023-08-12T10:52:19;1.88;;;0.30;;
77038;SDS011;65970;50.476;4.840;2023-08-12T10:57:36;1.35;;;0.30;;
77038;SDS011;65970;50.476;4.840;2023-08-12T11:02:36;0.55;;;0.43;;
77038;SDS011;65970;50.476;4.840;2023-08-12T11:07:38;0.88;;;0.45;;
77038;SDS011;65970;50.476;4.840;2023-08-12T11:17:55;1.13;;;0.40;;
77038;SDS011;65970;50.476;4.840;2023-08-12T11:22:55;0.70;;;0.30;;
77038;SDS011;65970;50.476;4.840;2023-08-12T11:27:56;0.60;;;0.35;;
77038;SDS011;65970;50.476;4.840;2023-08-12T11:32:57;0.55;;;0.40;;
77038;SDS011;65970;50.476;4.840;2023-08-12T11:37:59;1.75;;;0.30;;
77038;SDS011;65970;50.476;4.840;2023-08-12T11:42:59;0.32;;;0.20;;
77038;SDS011;65970;50.476;4.840;2023-08-12T11:48:01;0.63;;;0.43;;
77038;SDS011;65970;50.476;4.840;2023-08-12T11:53:02;1.48;;;0.43;;
77038;SDS011;65970;50.476;4.840;2023-08-12T11:58:03;0.82;;;0.40;;
77038;SDS011;65970;50.476;4.840;2023-08-12T12:03:04;0.63;;;0.40;;
77038;SDS011;65970;50.476;4.840;2023-08-12T12:08:04;0.73;;;0.40;;
77038;SDS011;65970;50.476;4.840;2023-08-12T12:13:05;0.80;;;0.40;;
77038;SDS011;65970;50.476;4.840;2023-08-12T12:18:10;0.43;;;0.30;;
77038;SDS011;65970;50.476;4.840;2023-08-12T12:23:11;2.00;;;0.55;;
77038;SDS011;65970;50.476;4.840;2023-08-12T12:28:12;1.08;;;0.55;;
77038;SDS011;65970;50.476;4.840;2023-08-12T12:33:12;0.73;;;0.50;;
77038;SDS011;65970;50.476;4.840;2023-08-12T12:38:13;0.43;;;0.40;;
77038;SDS011;65970;50.476;4.840;2023-08-12T12:43:13;1.00;;;0.43;;
77038;SDS011;65970;50.476;4.840;2023-08-12T12:48:14;1.40;;;0.38;;
77038;SDS011;65970;50.476;4.840;2023-08-12T12:53:14;2.50;;;0.55;;
77038;SDS011;65970;50.476;4.840;2023-08-12T12:58:15;3.30;;;0.60;;
77038;SDS011;65970;50.476;4.840;2023-08-12T13:03:16;0.60;;;0.55;;
77038;SDS011;65970;50.476;4.840;2023-08-12T13:08:16;0.90;;;0.70;;
77038;SDS011;65970;50.476;4.840;2023-08-12T13:13:17;0.85;;;0.40;;
77038;SDS011;65970;50.476;4.840;2023-08-12T13:18:18;1.50;;;0.50;;
77038;SDS011;65970;50.476;4.840;2023-08-12T13:23:18;1.27;;;0.50;;
77038;SDS011;65970;50.476;4.840;2023-08-12T13:28:19;1.45;;;0.70;;
77038;SDS011;65970;50.476;4.840;2023-08-12T13:33:19;1.50;;;0.60;;
77038;SDS011;65970;50.476;4.840;2023-08-12T13:38:20;2.05;;;0.40;;
77038;SDS011;65970;50.476;4.840;2023-08-12T13:43:20;2.00;;;1.25;;
77038;SDS011;65970;50.476;4.840;2023-08-12T13:48:21;1.75;;;0.60;;
77038;SDS011;65970;50.476;4.840;2023-08-12T13:53:21;2.47;;;0.57;;
77038;SDS011;65970;50.476;4.840;2023-08-12T13:58:22;2.25;;;0.50;;
77038;SDS011;65970;50.476;4.840;2023-08-12T14:03:22;1.80;;;0.60;;
77038;SDS011;65970;50.476;4.840;2023-08-12T14:08:23;2.00;;;0.90;;
77038;SDS011;65970;50.476;4.840;2023-08-12T14:13:24;2.30;;;0.75;;
77038;SDS011;65970;50.476;4.840;2023-08-12T14:18:24;0.80;;;0.40;;
77038;SDS011;65970;50.476;4.840;2023-08-12T14:23:25;1.40;;;0.50;;
77038;SDS011;65970;50.476;4.840;2023-08-12T14:28:25;1.95;;;0.80;;
77038;SDS011;65970;50.476;4.840;2023-08-12T14:33:26;2.00;;;0.63;;
77038;SDS011;65970;50.476;4.840;2023-08-12T14:38:26;0.93;;;0.40;;
77038;SDS011;65970;50.476;4.840;2023-08-12T14:43:27;2.50;;;1.35;;
77038;SDS011;65970;50.476;4.840;2023-08-12T14:48:27;0.70;;;0.45;;
77038;SDS011;65970;50.476;4.840;2023-08-12T14:53:28;1.15;;;0.40;;
77038;SDS011;65970;50.476;4.840;2023-08-12T14:58:29;1.05;;;0.50;;
77038;SDS011;65970;50.476;4.840;2023-08-12T15:03:29;1.13;;;0.73;;
77038;SDS011;65970;50.476;4.840;2023-08-12T15:08:30;3.03;;;0.73;;
77038;SDS011;65970;50.476;4.840;2023-08-12T15:13:31;1.90;;;0.85;;
77038;SDS011;65970;50.476;4.840;2023-08-12T15:18:32;2.50;;;0.60;;
77038;SDS011;65970;50.476;4.840;2023-08-12T15:23:32;3.70;;;1.05;;
77038;SDS011;65970;50.476;4.840;2023-08-12T15:28:33;1.92;;;0.50;;
77038;SDS011;65970;50.476;4.840;2023-08-12T15:33:33;1.67;;;0.63;;
77038;SDS011;65970;50.476;4.840;2023-08-12T15:38:34;1.52;;;0.60;;
77038;SDS011;65970;50.476;4.840;2023-08-12T15:43:34;2.35;;;0.77;;
77038;SDS011;65970;50.476;4.840;2023-08-12T15:48:35;3.67;;;1.20;;
77038;SDS011;65970;50.476;4.840;2023-08-12T15:53:35;2.22;;;0.60;;
77038;SDS011;65970;50.476;4.840;2023-08-12T15:58:36;1.77;;;0.70;;
77038;SDS011;65970;50.476;4.840;2023-08-12T16:03:36;4.32;;;0.80;;
77038;SDS011;65970;50.476;4.840;2023-08-12T16:08:37;2.33;;;0.75;;
77038;SDS011;65970;50.476;4.840;2023-08-12T16:13:38;2.05;;;0.90;;
77038;SDS011;65970;50.476;4.840;2023-08-12T16:18:38;0.95;;;0.47;;
77038;SDS011;65970;50.476;4.840;2023-08-12T16:23:39;1.15;;;0.80;;
77038;SDS011;65970;50.476;4.840;2023-08-12T16:28:39;1.45;;;0.60;;
77038;SDS011;65970;50.476;4.840;2023-08-12T16:33:40;1.90;;;1.13;;
77038;SDS011;65970;50.476;4.840;2023-08-12T16:38:41;2.30;;;0.80;;
77038;SDS011;65970;50.476;4.840;2023-08-12T16:43:42;4.32;;;1.10;;
77038;SDS011;65970;50.476;4.840;2023-08-12T16:48:43;5.07;;;1.20;;
77038;SDS011;65970;50.476;4.840;2023-08-12T16:53:43;2.33;;;0.60;;
77038;SDS011;65970;50.476;4.840;2023-08-12T16:58:44;2.47;;;1.20;;
77038;SDS011;65970;50.476;4.840;2023-08-12T17:03:44;4.18;;;0.80;;
77038;SDS011;65970;50.476;4.840;2023-08-12T17:08:45;1.98;;;0.95;;
77038;SDS011;65970;50.476;4.840;2023-08-12T17:13:46;2.63;;;1.08;;
77038;SDS011;65970;50.476;4.840;2023-08-12T17:18:46;3.83;;;1.00;;
77038;SDS011;65970;50.476;4.840;2023-08-12T17:23:47;2.28;;;1.20;;
77038;SDS011;65970;50.476;4.840;2023-08-12T17:28:47;3.92;;;1.13;;
77038;SDS011;65970;50.476;4.840;2023-08-12T17:33:48;4.10;;;1.20;;
77038;SDS011;65970;50.476;4.840;2023-08-12T17:38:48;7.93;;;2.17;;
77038;SDS011;65970;50.476;4.840;2023-08-12T17:43:49;4.10;;;1.40;;
77038;SDS011;65970;50.476;4.840;2023-08-12T17:48:49;2.88;;;1.25;;
77038;SDS011;65970;50.476;4.840;2023-08-12T17:53:50;4.47;;;1.77;;
77038;SDS011;65970;50.476;4.840;2023-08-12T17:58:50;2.10;;;1.08;;
77038;SDS011;65970;50.476;4.840;2023-08-12T18:03:51;2.70;;;1.48;;
77038;SDS011;65970;50.476;4.840;2023-08-12T18:08:52;2.05;;;1.40;;
77038;SDS011;65970;50.476;4.840;2023-08-12T18:13:53;5.30;;;1.50;;
77038;SDS011;65970;50.476;4.840;2023-08-12T18:18:53;2.08;;;1.42;;
77038;SDS011;65970;50.476;4.840;2023-08-12T18:23:54;2.28;;;1.20;;
77038;SDS011;65970;50.476;4.840;2023-08-12T18:28:55;4.00;;;1.83;;
77038;SDS011;65970;50.476;4.840;2023-08-12T18:33:55;3.72;;;1.65;;
77038;SDS011;65970;50.476;4.840;2023-08-12T18:38:56;2.22;;;1.35;;
77038;SDS011;65970;50.476;4.840;2023-08-12T18:43:56;4.28;;;1.55;;
77038;SDS011;65970;50.476;4.840;2023-08-12T18:48:57;2.50;;;1.65;;
77038;SDS011;65970;50.476;4.840;2023-08-12T18:53:57;5.60;;;2.05;;
77038;SDS011;65970;50.476;4.840;2023-08-12T18:58:58;3.20;;;1.60;;
77038;SDS011;65970;50.476;4.840;2023-08-12T19:03:58;3.88;;;1.80;;
77038;SDS011;65970;50.476;4.840;2023-08-12T19:08:59;4.95;;;1.63;;
77038;SDS011;65970;50.476;4.840;2023-08-12T19:13:59;3.63;;;1.70;;
77038;SDS011;65970;50.476;4.840;2023-08-12T19:19:00;4.38;;;1.52;;
77038;SDS011;65970;50.476;4.840;2023-08-12T19:24:01;6.50;;;1.85;;
77038;SDS011;65970;50.476;4.840;2023-08-12T19:29:01;4.55;;;1.75;;
77038;SDS011;65970;50.476;4.840;2023-08-12T19:34:02;2.97;;;1.30;;
77038;SDS011;65970;50.476;4.840;2023-08-12T19:39:03;2.63;;;1.52;;
77038;SDS011;65970;50.476;4.840;2023-08-12T19:44:04;4.00;;;1.58;;
77038;SDS011;65970;50.476;4.840;2023-08-12T19:49:04;1.67;;;1.17;;
77038;SDS011;65970;50.476;4.840;2023-08-12T19:54:05;2.17;;;1.20;;
77038;SDS011;65970;50.476;4.840;2023-08-12T19:59:05;3.47;;;1.30;;
77038;SDS011;65970;50.476;4.840;2023-08-12T20:04:06;4.90;;;1.00;;
77038;SDS011;65970;50.476;4.840;2023-08-12T20:09:07;2.33;;;1.17;;
77038;SDS011;65970;50.476;4.840;2023-08-12T20:14:07;2.97;;;0.98;;
77038;SDS011;65970;50.476;4.840;2023-08-12T20:19:08;3.25;;;1.42;;
77038;SDS011;65970;50.476;4.840;2023-08-12T20:24:08;4.43;;;1.30;;
77038;SDS011;65970;50.476;4.840;2023-08-12T20:29:09;3.75;;;1.17;;
77038;SDS011;65970;50.476;4.840;2023-08-12T20:34:09;3.17;;;1.42;;
77038;SDS011;65970;50.476;4.840;2023-08-12T20:39:10;2.38;;;1.25;;
77038;SDS011;65970;50.476;4.840;2023-08-12T20:44:11;4.35;;;1.10;;
77038;SDS011;65970;50.476;4.840;2023-08-12T20:49:11;3.95;;;1.65;;
77038;SDS011;65970;50.476;4.840;2023-08-12T20:54:12;2.35;;;1.40;;
77038;SDS011;65970;50.476;4.840;2023-08-12T20:59:12;3.85;;;1.48;;
77038;SDS011;65970;50.476;4.840;2023-08-12T21:04:13;2.95;;;1.52;;
77038;SDS011;65970;50.476;4.840;2023-08-12T21:09:13;4.60;;;1.70;;
77038;SDS011;65970;50.476;4.840;2023-08-12T21:14:14;3.53;;;1.40;;
77038;SDS011;65970;50.476;4.840;2023-08-12T21:19:15;5.53;;;1.48;;
77038;SDS011;65970;50.476;4.840;2023-08-12T21:24:15;3.63;;;1.27;;
77038;SDS011;65970;50.476;4.840;2023-08-12T21:29:16;2.55;;;0.98;;
77038;SDS011;65970;50.476;4.840;2023-08-12T21:34:16;2.55;;;1.55;;
77038;SDS011;65970;50.476;4.840;2023-08-12T21:39:17;1.95;;;1.63;;
77038;SDS011;65970;50.476;4.840;2023-08-12T21:44:17;2.50;;;1.08;;
77038;SDS011;65970;50.476;4.840;2023-08-12T21:49:18;6.32;;;1.80;;
77038;SDS011;65970;50.476;4.840;2023-08-12T21:54:18;3.20;;;1.77;;
77038;SDS011;65970;50.476;4.840;2023-08-12T21:59:19;4.75;;;1.85;;
77038;SDS011;65970;50.476;4.840;2023-08-12T22:04:20;3.03;;;1.50;;
77038;SDS011;65970;50.476;4.840;2023-08-12T22:09:20;3.90;;;1.67;;
77038;SDS011;65970;50.476;4.840;2023-08-12T22:14:21;4.78;;;2.15;;
77038;SDS011;65970;50.476;4.840;2023-08-12T22:19:21;3.92;;;1.45;;
77038;SDS011;65970;50.476;4.840;2023-08-12T22:24:22;3.15;;;1.27;;
77038;SDS011;65970;50.476;4.840;2023-08-12T22:29:22;3.38;;;1.85;;
77038;SDS011;65970;50.476;4.840;2023-08-12T22:34:23;3.33;;;1.23;;
77038;SDS011;65970;50.476;4.840;2023-08-12T22:39:23;2.58;;;1.65;;
77038;SDS011;65970;50.476;4.840;2023-08-12T22:44:24;1.92;;;1.05;;
77038;SDS011;65970;50.476;4.840;2023-08-12T22:49:25;1.92;;;1.00;;
77038;SDS011;65970;50.476;4.840;2023-08-12T22:54:25;5.13;;;1.88;;
77038;SDS011;65970;50.476;4.840;2023-08-12T22:59:26;2.10;;;1.33;;
77038;SDS011;65970;50.476;4.840;2023-08-12T23:04:26;2.33;;;1.17;;
77038;SDS011;65970;50.476;4.840;2023-08-12T23:09:27;4.13;;;1.40;;
77038;SDS011;65970;50.476;4.840;2023-08-12T23:14:27;3.53;;;1.63;;
77038;SDS011;65970;50.476;4.840;2023-08-12T23:19:28;4.43;;;1.50;;
77038;SDS011;65970;50.476;4.840;2023-08-12T23:24:28;4.45;;;1.80;;
77038;SDS011;65970;50.476;4.840;2023-08-12T23:29:29;4.88;;;1.75;;
77038;SDS011;65970;50.476;4.840;2023-08-12T23:34:30;4.32;;;2.08;;
77038;SDS011;65970;50.476;4.840;2023-08-12T23:39:31;5.35;;;1.80;;
77038;SDS011;65970;50.476;4.840;2023-08-12T23:44:31;4.70;;;1.40;;
77038;SDS011;65970;50.476;4.840;2023-08-12T23:49:32;4.93;;;1.70;;
77038;SDS011;65970;50.476;4.840;2023-08-12T23:54:33;5.40;;;1.98;;
77038;SDS011;65970;50.476;4.840;2023-08-12T23:59:33;4.50;;;1.67;;
